Time;durP1;ratioP1;P1;durP2;ratioP2;P2;SDS_P1;SDS_P2;PMS_P1;PMS_P2;Temp;Humidity;BMP_temperature;BMP_pressure;BME280_temperature;BME280_humidity;BME280_pressure;Samples;Min_cycle;Max_cycle;Signal;HPM_P1;HPM_P2
2022/11/26 00:01:09;;;;;;;14.52;8.52;;;;;;;;;;5063402;28;20197;-67
2022/11/26 00:03:37;;;;;;;14.32;8.57;;;;;;;;;;5063337;28;20267;-67
2022/11/26 00:06:04;;;;;;;13.18;8.20;;;;;;;;;;5063392;28;20201;-66
2022/11/26 00:08:32;;;;;;;13.63;7.78;;;;;;;;;;5062883;28;20197;-66
2022/11/26 00:10:59;;;;;;;12.02;7.03;;;;;;;;;;5063004;28;20220;-67
2022/11/26 00:13:26;;;;;;;11.30;6.50;;;;;;;;;;5062851;28;20208;-66
2022/11/26 00:15:52;;;;;;;12.15;6.53;;;;;;;;;;5063110;28;20204;-66
2022/11/26 00:18:19;;;;;;;10.80;6.13;;;;;;;;;;5062677;28;20219;-66
2022/11/26 00:20:50;;;;;;;9.13;5.82;;;;;;;;;;5062694;28;20205;-66
2022/11/26 00:23:19;;;;;;;11.35;6.28;;;;;;;;;;5062759;28;20224;-66
2022/11/26 00:25:48;;;;;;;10.07;6.25;;;;;;;;;;5062700;28;20390;-66
2022/11/26 00:28:22;;;;;;;9.82;5.50;;;;;;;;;;5062544;28;20221;-66
2022/11/26 00:30:48;;;;;;;10.50;5.60;;;;;;;;;;5063063;28;20196;-66
2022/11/26 00:33:15;;;;;;;11.05;6.13;;;;;;;;;;5062623;28;20203;-66
2022/11/26 00:35:41;;;;;;;11.02;5.38;;;;;;;;;;5062521;28;20527;-66
2022/11/26 00:38:12;;;;;;;10.02;6.07;;;;;;;;;;5062196;28;20412;-66
2022/11/26 00:40:40;;;;;;;14.77;5.78;;;;;;;;;;5062456;28;20205;-66
2022/11/26 00:43:10;;;;;;;8.65;5.53;;;;;;;;;;5062255;28;20221;-66
2022/11/26 00:45:36;;;;;;;12.80;5.45;;;;;;;;;;5062387;28;20527;-66
2022/11/26 00:48:02;;;;;;;11.65;5.60;;;;;;;;;;5062120;28;20204;-66
2022/11/26 00:50:31;;;;;;;7.85;5.03;;;;;;;;;;5062184;28;20201;-66
2022/11/26 00:52:57;;;;;;;9.23;5.10;;;;;;;;;;5061392;28;20200;-67
2022/11/26 00:55:28;;;;;;;9.63;5.38;;;;;;;;;;5062306;28;20651;-67
2022/11/26 00:57:55;;;;;;;8.35;5.07;;;;;;;;;;5062117;28;20201;-67
2022/11/26 01:00:23;;;;;;;5.75;5.00;;;;;;;;;;5062263;28;20531;-67
2022/11/26 01:02:49;;;;;;;7.10;5.25;;;;;;;;;;5062000;28;20546;-66
2022/11/26 01:05:15;;;;;;;12.57;5.43;;;;;;;;;;5061963;28;20204;-66
2022/11/26 01:07:42;;;;;;;12.20;5.55;;;;;;;;;;5061975;28;20534;-66
2022/11/26 01:10:14;;;;;;;7.97;5.22;;;;;;;;;;5062077;28;20512;-66
2022/11/26 01:12:42;;;;;;;9.77;5.57;;;;;;;;;;5061930;28;20318;-66
2022/11/26 01:15:09;;;;;;;11.80;5.97;;;;;;;;;;5061918;28;20538;-67
2022/11/26 01:17:35;;;;;;;12.30;6.07;;;;;;;;;;5061670;28;20385;-66
2022/11/26 01:20:02;;;;;;;13.10;7.50;;;;;;;;;;5061787;28;20544;-67
2022/11/26 01:22:29;;;;;;;12.57;6.82;;;;;;;;;;5061970;28;20224;-67
2022/11/26 01:24:55;;;;;;;12.35;6.72;;;;;;;;;;5061923;28;20219;-66
2022/11/26 01:27:22;;;;;;;14.88;6.93;;;;;;;;;;5062041;28;20219;-67
2022/11/26 01:29:49;;;;;;;13.65;7.15;;;;;;;;;;5061529;28;20197;-67
2022/11/26 01:32:15;;;;;;;14.48;7.55;;;;;;;;;;5061667;28;20458;-66
2022/11/26 01:34:42;;;;;;;9.25;7.22;;;;;;;;;;5061806;28;20199;-66
2022/11/26 01:37:11;;;;;;;12.57;7.03;;;;;;;;;;5061802;28;20197;-66
2022/11/26 01:39:37;;;;;;;12.27;6.65;;;;;;;;;;5061517;28;20196;-66
2022/11/26 01:42:05;;;;;;;14.82;7.18;;;;;;;;;;5061819;28;20193;-66
2022/11/26 01:44:33;;;;;;;14.38;6.57;;;;;;;;;;5061574;28;20555;-66
2022/11/26 01:47:01;;;;;;;11.63;6.47;;;;;;;;;;5061523;28;20201;-66
2022/11/26 01:49:28;;;;;;;13.32;7.07;;;;;;;;;;5061421;28;20197;-66
2022/11/26 01:52:00;;;;;;;12.25;6.50;;;;;;;;;;5061671;28;20219;-66
2022/11/26 01:54:27;;;;;;;14.30;6.97;;;;;;;;;;5061503;28;20493;-66
2022/11/26 01:56:54;;;;;;;9.85;6.18;;;;;;;;;;5061534;28;20197;-66
2022/11/26 01:59:23;;;;;;;9.43;5.70;;;;;;;;;;5061171;28;20207;-66
2022/11/26 02:01:51;;;;;;;7.93;6.72;;;;;;;;;;5061925;28;20201;-66
2022/11/26 02:04:19;;;;;;;11.63;6.63;;;;;;;;;;5065078;28;20287;-67
2022/11/26 02:06:47;;;;;;;10.43;5.95;;;;;;;;;;5065759;28;20268;-67
2022/11/26 02:09:14;;;;;;;11.60;6.35;;;;;;;;;;5065147;28;20268;-66
2022/11/26 02:11:40;;;;;;;11.98;6.38;;;;;;;;;;5065258;28;20532;-66
2022/11/26 02:14:08;;;;;;;9.18;6.45;;;;;;;;;;5064943;28;20272;-66
2022/11/26 02:16:41;;;;;;;11.93;6.25;;;;;;;;;;5065271;28;20224;-66
2022/11/26 02:19:20;;;;;;;11.02;6.53;;;;;;;;;;5064901;28;20271;-66
2022/11/26 02:21:52;;;;;;;16.13;6.38;;;;;;;;;;5065044;28;20272;-66
2022/11/26 02:24:32;;;;;;;10.82;6.05;;;;;;;;;;5064899;28;20283;-66
2022/11/26 02:27:12;;;;;;;9.30;6.22;;;;;;;;;;5064838;28;20197;-67
2022/11/26 02:29:54;;;;;;;13.10;6.50;;;;;;;;;;5065000;28;20508;-66
2022/11/26 02:32:23;;;;;;;13.38;6.97;;;;;;;;;;5064824;28;20197;-66
2022/11/26 02:34:53;;;;;;;9.95;7.00;;;;;;;;;;5064747;28;20197;-66
2022/11/26 02:37:21;;;;;;;10.27;7.10;;;;;;;;;;5065063;28;20197;-66
2022/11/26 02:39:47;;;;;;;10.82;7.50;;;;;;;;;;5064630;28;20197;-66
2022/11/26 02:42:22;;;;;;;13.60;7.20;;;;;;;;;;5064554;28;20243;-66
2022/11/26 02:44:50;;;;;;;13.05;7.35;;;;;;;;;;5064494;28;20247;-66
2022/11/26 02:47:17;;;;;;;9.68;6.65;;;;;;;;;;5064603;28;20212;-66
2022/11/26 02:49:46;;;;;;;10.07;7.15;;;;;;;;;;5064570;28;20267;-66
2022/11/26 02:52:14;;;;;;;13.25;7.72;;;;;;;;;;5064750;28;20209;-66
2022/11/26 02:54:42;;;;;;;12.73;7.43;;;;;;;;;;5064568;28;20193;-66
2022/11/26 02:57:11;;;;;;;8.13;6.82;;;;;;;;;;5064038;28;20263;-67
2022/11/26 02:59:38;;;;;;;14.55;7.35;;;;;;;;;;5063932;28;20197;-66
2022/11/26 03:02:08;;;;;;;13.27;7.07;;;;;;;;;;5064449;28;20203;-67
2022/11/26 03:04:37;;;;;;;10.27;7.15;;;;;;;;;;5064281;28;20216;-66
2022/11/26 03:07:05;;;;;;;12.18;7.32;;;;;;;;;;5064722;28;20201;-66
2022/11/26 03:09:39;;;;;;;11.65;6.97;;;;;;;;;;5064094;28;20204;-66
2022/11/26 03:12:05;;;;;;;14.43;7.55;;;;;;;;;;5064346;28;20299;-66
2022/11/26 03:14:31;;;;;;;9.07;7.03;;;;;;;;;;5063623;28;20193;-66
2022/11/26 03:16:58;;;;;;;13.95;7.47;;;;;;;;;;5064209;28;20280;-66
2022/11/26 03:19:25;;;;;;;10.75;7.30;;;;;;;;;;5063753;28;20508;-66
2022/11/26 03:21:52;;;;;;;11.48;6.85;;;;;;;;;;5063975;28;20201;-66
2022/11/26 03:24:18;;;;;;;9.20;7.20;;;;;;;;;;5063954;28;20224;-66
2022/11/26 03:26:44;;;;;;;12.82;7.40;;;;;;;;;;5063736;28;20203;-66
2022/11/26 03:29:11;;;;;;;11.45;7.00;;;;;;;;;;5063749;28;20224;-66
2022/11/26 03:31:37;;;;;;;15.45;7.15;;;;;;;;;;5063946;28;20217;-66
2022/11/26 03:34:03;;;;;;;11.40;6.72;;;;;;;;;;5063808;28;20515;-66
2022/11/26 03:36:31;;;;;;;10.82;6.65;;;;;;;;;;5063758;28;20197;-66
2022/11/26 03:38:57;;;;;;;11.30;7.40;;;;;;;;;;5063392;28;20208;-66
2022/11/26 03:41:23;;;;;;;10.35;7.30;;;;;;;;;;5063774;28;20201;-66
2022/11/26 03:43:50;;;;;;;12.27;6.93;;;;;;;;;;5063803;28;20520;-66
2022/11/26 03:46:16;;;;;;;10.13;7.35;;;;;;;;;;5063628;28;20231;-66
2022/11/26 03:48:42;;;;;;;13.80;7.10;;;;;;;;;;5063448;28;20203;-66
2022/11/26 03:51:08;;;;;;;10.15;6.93;;;;;;;;;;5063438;28;20268;-67
2022/11/26 03:53:36;;;;;;;12.38;7.22;;;;;;;;;;5063365;28;20185;-67
2022/11/26 03:56:02;;;;;;;12.07;7.93;;;;;;;;;;5063530;28;20396;-67
2022/11/26 03:58:29;;;;;;;13.27;8.07;;;;;;;;;;5063140;28;20203;-67
2022/11/26 04:00:55;;;;;;;16.88;7.75;;;;;;;;;;5063218;28;20217;-67
2022/11/26 04:03:21;;;;;;;14.55;7.57;;;;;;;;;;5063116;28;20228;-67
2022/11/26 04:05:48;;;;;;;9.65;7.22;;;;;;;;;;5063148;28;20203;-67
2022/11/26 04:08:14;;;;;;;9.73;7.25;;;;;;;;;;5063335;28;20267;-67
2022/11/26 04:10:41;;;;;;;10.50;7.40;;;;;;;;;;5062912;28;20204;-67
2022/11/26 04:13:08;;;;;;;12.65;8.10;;;;;;;;;;5063170;28;20197;-67
2022/11/26 04:15:34;;;;;;;14.40;8.02;;;;;;;;;;5063043;28;20204;-67
2022/11/26 04:18:01;;;;;;;10.55;6.88;;;;;;;;;;5062691;28;20405;-67
2022/11/26 04:20:27;;;;;;;11.60;7.72;;;;;;;;;;5062767;28;20209;-67
2022/11/26 04:22:54;;;;;;;10.90;7.93;;;;;;;;;;5062744;28;20220;-67
2022/11/26 04:25:20;;;;;;;12.77;7.30;;;;;;;;;;5062774;28;20641;-67
2022/11/26 04:27:47;;;;;;;13.93;7.32;;;;;;;;;;5061715;28;20413;-67
2022/11/26 04:30:15;;;;;;;11.02;7.13;;;;;;;;;;5062935;28;20197;-67
2022/11/26 04:32:41;;;;;;;10.98;6.95;;;;;;;;;;5062639;28;20201;-67
2022/11/26 04:35:08;;;;;;;17.17;6.95;;;;;;;;;;5062902;28;20199;-67
2022/11/26 04:37:34;;;;;;;13.35;7.35;;;;;;;;;;5062613;28;20516;-67
2022/11/26 04:40:01;;;;;;;8.40;6.25;;;;;;;;;;5062887;28;20197;-67
2022/11/26 04:42:27;;;;;;;11.60;6.68;;;;;;;;;;5062483;28;20274;-67
2022/11/26 04:44:54;;;;;;;12.80;6.60;;;;;;;;;;5062320;28;20239;-67
2022/11/26 04:47:21;;;;;;;9.38;6.22;;;;;;;;;;5062264;28;20197;-67
2022/11/26 04:49:47;;;;;;;13.00;6.43;;;;;;;;;;5062029;28;20201;-67
2022/11/26 04:52:13;;;;;;;9.70;5.95;;;;;;;;;;5062733;28;20212;-67
2022/11/26 04:54:40;;;;;;;11.77;6.72;;;;;;;;;;5062357;28;20368;-67
2022/11/26 04:57:06;;;;;;;11.95;6.30;;;;;;;;;;5062341;28;20197;-67
2022/11/26 04:59:32;;;;;;;14.95;7.10;;;;;;;;;;5062108;28;20232;-67
2022/11/26 05:02:00;;;;;;;9.20;5.72;;;;;;;;;;5062242;28;20229;-67
2022/11/26 05:04:27;;;;;;;12.13;6.32;;;;;;;;;;5061895;28;20221;-67
2022/11/26 05:06:53;;;;;;;9.88;5.90;;;;;;;;;;5062527;28;20271;-67
2022/11/26 05:09:19;;;;;;;9.75;5.70;;;;;;;;;;5061784;28;20204;-67
2022/11/26 05:11:45;;;;;;;8.02;5.30;;;;;;;;;;5062059;28;20258;-67
2022/11/26 05:14:12;;;;;;;12.00;5.50;;;;;;;;;;5062049;28;20200;-67
2022/11/26 05:16:38;;;;;;;7.97;5.05;;;;;;;;;;5062022;28;20197;-67
2022/11/26 05:19:06;;;;;;;6.78;5.07;;;;;;;;;;5061550;28;20220;-67
2022/11/26 05:21:32;;;;;;;11.85;6.70;;;;;;;;;;5062203;28;20604;-67
2022/11/26 05:23:58;;;;;;;9.63;5.80;;;;;;;;;;5061887;28;20558;-67
2022/11/26 05:26:24;;;;;;;8.52;5.80;;;;;;;;;;5061836;28;20201;-67
2022/11/26 05:28:51;;;;;;;7.45;5.45;;;;;;;;;;5061510;28;20223;-67
2022/11/26 05:31:17;;;;;;;10.05;5.75;;;;;;;;;;5061701;28;20208;-67
2022/11/26 05:33:43;;;;;;;8.52;5.88;;;;;;;;;;5061724;28;20210;-67
2022/11/26 05:36:11;;;;;;;8.68;5.75;;;;;;;;;;5061968;28;20370;-67
2022/11/26 05:38:37;;;;;;;9.15;6.13;;;;;;;;;;5064211;28;20201;-67
2022/11/26 05:41:04;;;;;;;11.48;5.50;;;;;;;;;;5066005;28;20519;-67
2022/11/26 05:43:30;;;;;;;8.95;5.20;;;;;;;;;;5065843;28;20226;-67
2022/11/26 05:45:56;;;;;;;7.93;4.95;;;;;;;;;;5065595;28;20203;-67
2022/11/26 05:48:22;;;;;;;8.23;5.57;;;;;;;;;;5065571;28;20197;-67
2022/11/26 05:50:56;;;;;;;9.70;5.72;;;;;;;;;;5065861;28;20385;-67
2022/11/26 05:53:23;;;;;;;9.23;5.30;;;;;;;;;;5066058;28;20399;-67
2022/11/26 05:55:49;;;;;;;9.55;5.68;;;;;;;;;;5065781;28;20492;-67
2022/11/26 05:58:16;;;;;;;8.55;6.28;;;;;;;;;;5065352;28;20197;-67
2022/11/26 06:00:42;;;;;;;10.30;6.53;;;;;;;;;;5065564;28;20614;-67
2022/11/26 06:03:08;;;;;;;11.63;6.53;;;;;;;;;;5065771;28;20204;-67
2022/11/26 06:05:35;;;;;;;10.95;6.25;;;;;;;;;;5065429;28;20217;-67
2022/11/26 06:08:01;;;;;;;14.15;8.73;;;;;;;;;;5065378;28;20369;-67
2022/11/26 06:10:29;;;;;;;18.73;9.77;;;;;;;;;;5065452;28;20416;-67
2022/11/26 06:12:55;;;;;;;20.88;9.93;;;;;;;;;;5065253;28;20215;-67
2022/11/26 06:15:21;;;;;;;17.38;8.32;;;;;;;;;;5065315;28;20390;-67
2022/11/26 06:17:48;;;;;;;12.75;7.50;;;;;;;;;;5065007;28;20201;-67
2022/11/26 06:20:14;;;;;;;9.85;6.95;;;;;;;;;;5065235;28;20208;-67
2022/11/26 06:22:41;;;;;;;14.63;6.47;;;;;;;;;;5065351;28;20394;-67
2022/11/26 06:25:09;;;;;;;12.07;8.27;;;;;;;;;;5065066;28;20532;-68
2022/11/26 06:27:37;;;;;;;14.63;9.75;;;;;;;;;;5064822;28;20417;-67
2022/11/26 06:30:03;;;;;;;19.23;13.98;;;;;;;;;;5064984;28;20205;-67
2022/11/26 06:32:30;;;;;;;10.43;8.63;;;;;;;;;;5064851;28;20197;-67
2022/11/26 06:34:56;;;;;;;8.57;7.05;;;;;;;;;;5065058;28;20223;-67
2022/11/26 06:37:22;;;;;;;10.50;7.47;;;;;;;;;;5064887;28;20409;-67
2022/11/26 06:39:49;;;;;;;11.70;6.78;;;;;;;;;;5064633;28;20197;-67
2022/11/26 06:42:15;;;;;;;14.45;7.20;;;;;;;;;;5064729;28;20211;-67
2022/11/26 06:44:42;;;;;;;8.43;6.22;;;;;;;;;;5064565;28;20236;-67
2022/11/26 06:47:10;;;;;;;10.73;6.97;;;;;;;;;;5064811;28;20536;-67
2022/11/26 06:49:36;;;;;;;12.35;6.70;;;;;;;;;;5063547;28;20196;-67
2022/11/26 06:52:02;;;;;;;9.60;6.95;;;;;;;;;;5064635;28;20318;-67
2022/11/26 06:54:28;;;;;;;7.88;6.20;;;;;;;;;;5064582;28;20522;-67
2022/11/26 06:56:55;;;;;;;13.10;7.35;;;;;;;;;;5064378;28;20197;-67
2022/11/26 06:59:21;;;;;;;13.55;6.68;;;;;;;;;;5064403;28;20212;-67
2022/11/26 07:01:49;;;;;;;14.30;7.07;;;;;;;;;;5064583;28;20370;-67
2022/11/26 07:04:15;;;;;;;10.90;6.45;;;;;;;;;;5064278;28;20231;-67
2022/11/26 07:06:42;;;;;;;9.25;6.47;;;;;;;;;;5064409;28;20205;-67
2022/11/26 07:09:09;;;;;;;10.68;6.68;;;;;;;;;;5064152;28;20204;-67
2022/11/26 07:11:35;;;;;;;14.88;7.32;;;;;;;;;;5064417;28;20251;-67
2022/11/26 07:14:02;;;;;;;13.50;7.22;;;;;;;;;;5064621;28;20213;-67
2022/11/26 07:16:28;;;;;;;11.93;7.28;;;;;;;;;;5064266;28;20196;-67
2022/11/26 07:18:57;;;;;;;11.07;6.78;;;;;;;;;;5063895;28;20484;-67
2022/11/26 07:21:23;;;;;;;12.48;6.82;;;;;;;;;;5064731;28;20197;-67
2022/11/26 07:23:51;;;;;;;9.80;6.97;;;;;;;;;;5064080;28;20527;-67
2022/11/26 07:26:18;;;;;;;10.23;6.60;;;;;;;;;;5063807;28;20293;-67
2022/11/26 07:28:46;;;;;;;10.20;6.50;;;;;;;;;;5063540;28;20224;-67
2022/11/26 07:31:13;;;;;;;10.13;6.38;;;;;;;;;;5063962;28;20197;-67
2022/11/26 07:33:39;;;;;;;9.85;6.30;;;;;;;;;;5063843;28;20197;-67
2022/11/26 07:36:08;;;;;;;11.02;6.43;;;;;;;;;;5063915;28;20193;-67
2022/11/26 07:38:35;;;;;;;21.95;8.77;;;;;;;;;;5063511;28;20197;-67
2022/11/26 07:41:03;;;;;;;36.28;19.52;;;;;;;;;;5063841;28;20205;-67
2022/11/26 07:43:29;;;;;;;12.82;8.35;;;;;;;;;;5064046;28;20527;-67
2022/11/26 07:45:55;;;;;;;13.73;6.38;;;;;;;;;;5063762;28;20227;-67
2022/11/26 07:48:22;;;;;;;12.27;5.75;;;;;;;;;;5063550;28;20201;-68
2022/11/26 07:50:48;;;;;;;9.93;6.88;;;;;;;;;;5063694;28;20197;-68
2022/11/26 07:53:16;;;;;;;15.05;8.38;;;;;;;;;;5063455;28;20205;-68
2022/11/26 07:55:42;;;;;;;12.75;7.00;;;;;;;;;;5063761;28;20200;-68
2022/11/26 07:58:08;;;;;;;11.63;7.82;;;;;;;;;;5063435;28;20204;-68
2022/11/26 08:00:35;;;;;;;10.77;6.80;;;;;;;;;;5063244;28;20197;-68
2022/11/26 08:03:01;;;;;;;10.60;6.68;;;;;;;;;;5063525;28;20193;-68
2022/11/26 08:05:27;;;;;;;11.60;7.20;;;;;;;;;;5063549;28;20540;-68
2022/11/26 08:07:53;;;;;;;10.10;7.15;;;;;;;;;;5063234;28;20196;-68
2022/11/26 08:10:21;;;;;;;11.15;7.60;;;;;;;;;;5063616;28;20203;-68
2022/11/26 08:12:47;;;;;;;13.70;7.63;;;;;;;;;;5063486;28;20196;-68
2022/11/26 08:15:14;;;;;;;12.70;7.40;;;;;;;;;;5063548;28;20213;-59
2022/11/26 08:17:40;;;;;;;11.82;7.38;;;;;;;;;;5063039;28;20526;-59
2022/11/26 08:20:07;;;;;;;12.63;7.30;;;;;;;;;;5062893;28;20250;-59
2022/11/26 08:22:33;;;;;;;9.73;6.72;;;;;;;;;;5063283;28;20197;-59
2022/11/26 08:24:59;;;;;;;15.75;7.07;;;;;;;;;;5062729;28;20233;-59
2022/11/26 08:27:27;;;;;;;10.18;7.10;;;;;;;;;;5063046;28;20232;-59
2022/11/26 08:29:53;;;;;;;9.75;7.53;;;;;;;;;;5063250;28;20473;-61
2022/11/26 08:32:20;;;;;;;13.45;7.82;;;;;;;;;;5062899;28;20273;-60
2022/11/26 08:34:46;;;;;;;13.25;8.40;;;;;;;;;;5062791;28;20193;-60
2022/11/26 08:37:12;;;;;;;10.82;7.45;;;;;;;;;;5062948;28;20197;-59
2022/11/26 08:39:39;;;;;;;11.57;6.88;;;;;;;;;;5062696;28;20197;-60
2022/11/26 08:42:05;;;;;;;11.82;7.20;;;;;;;;;;5062851;28;20489;-60
2022/11/26 08:44:33;;;;;;;11.23;6.70;;;;;;;;;;5062613;28;20201;-59
2022/11/26 08:46:59;;;;;;;13.13;6.65;;;;;;;;;;5062687;28;20205;-59
2022/11/26 08:49:25;;;;;;;15.70;6.65;;;;;;;;;;5062086;28;20197;-58
2022/11/26 08:51:54;;;;;;;11.55;7.18;;;;;;;;;;5062654;28;20384;-58
2022/11/26 08:54:21;;;;;;;7.07;6.30;;;;;;;;;;5062630;28;20204;-59
2022/11/26 08:56:47;;;;;;;14.85;6.40;;;;;;;;;;5062605;28;20200;-59
2022/11/26 08:59:13;;;;;;;13.68;6.53;;;;;;;;;;5062248;28;20207;-59
2022/11/26 09:01:41;;;;;;;8.52;5.88;;;;;;;;;;5062574;28;20527;-60
2022/11/26 09:04:07;;;;;;;10.32;5.80;;;;;;;;;;5062149;28;20205;-59
2022/11/26 09:06:35;;;;;;;9.45;5.68;;;;;;;;;;5062512;28;20228;-59
2022/11/26 09:09:14;;;;;;;8.68;5.75;;;;;;;;;;5061931;28;20201;-60
2022/11/26 09:11:42;;;;;;;12.75;6.47;;;;;;;;;;5062208;28;20203;-60
2022/11/26 09:14:08;;;;;;;11.02;6.07;;;;;;;;;;5061729;28;20505;-60
2022/11/26 09:16:35;;;;;;;7.72;5.90;;;;;;;;;;5062270;28;20240;-59
2022/11/26 09:19:03;;;;;;;14.25;6.78;;;;;;;;;;5061930;28;20205;-59
2022/11/26 09:21:30;;;;;;;11.23;6.60;;;;;;;;;;5062264;28;20197;-59
2022/11/26 09:23:56;;;;;;;6.90;5.80;;;;;;;;;;5054189;28;20447;-59
2022/11/26 09:26:24;;;;;;;9.23;6.00;;;;;;;;;;5052175;28;20228;-60
2022/11/26 09:28:50;;;;;;;7.07;5.85;;;;;;;;;;5055639;28;20228;-59
2022/11/26 09:31:17;;;;;;;8.95;5.85;;;;;;;;;;5046386;28;20205;-59
2022/11/26 09:33:43;;;;;;;11.65;6.60;;;;;;;;;;5056468;28;20209;-60
2022/11/26 09:36:13;;;;;;;15.10;6.97;;;;;;;;;;5055943;28;20201;-61
2022/11/26 09:38:39;;;;;;;7.28;5.80;;;;;;;;;;5056134;28;20235;-61
2022/11/26 09:41:10;;;;;;;10.40;5.90;;;;;;;;;;5056394;28;20304;-58
2022/11/26 09:43:40;;;;;;;10.07;6.05;;;;;;;;;;5056292;28;20627;-60
2022/11/26 09:46:08;;;;;;;8.50;5.97;;;;;;;;;;5055748;28;20231;-61
2022/11/26 09:48:34;;;;;;;7.82;5.55;;;;;;;;;;5055971;28;20430;-61
2022/11/26 09:51:06;;;;;;;9.60;5.53;;;;;;;;;;5056325;28;20417;-59
2022/11/26 09:53:36;;;;;;;11.73;5.20;;;;;;;;;;5056503;28;20383;-60
2022/11/26 09:56:03;;;;;;;9.57;5.20;;;;;;;;;;5055551;28;20406;-59
2022/11/26 09:58:33;;;;;;;12.30;5.38;;;;;;;;;;5055626;28;21149;-60
2022/11/26 10:01:00;;;;;;;11.10;4.97;;;;;;;;;;5055998;28;20201;-60
2022/11/26 10:03:30;;;;;;;8.63;4.93;;;;;;;;;;5055663;28;20213;-58
2022/11/26 10:05:57;;;;;;;6.30;4.80;;;;;;;;;;5055154;28;20251;-59
2022/11/26 10:08:48;;;;;;;8.30;4.88;;;;;;;;;;5055460;28;20209;-59
2022/11/26 10:11:18;;;;;;;6.65;3.78;;;;;;;;;;5045219;28;20421;-59
2022/11/26 10:13:48;;;;;;;9.20;4.82;;;;;;;;;;5055721;28;20213;-58
2022/11/26 10:16:19;;;;;;;7.00;5.05;;;;;;;;;;5055396;28;20205;-58
2022/11/26 10:18:49;;;;;;;8.73;4.55;;;;;;;;;;5055258;28;20217;-59
2022/11/26 10:21:21;;;;;;;3.97;3.67;;;;;;;;;;5055603;28;20209;-58
2022/11/26 10:23:50;;;;;;;8.32;4.82;;;;;;;;;;5056497;28;20209;-59
2022/11/26 10:26:20;;;;;;;8.15;4.95;;;;;;;;;;5059157;28;20435;-59
2022/11/26 10:28:47;;;;;;;8.95;5.10;;;;;;;;;;5059376;28;20296;-59
2022/11/26 10:31:17;;;;;;;13.32;5.30;;;;;;;;;;5059730;28;20694;-59
2022/11/26 10:33:52;;;;;;;10.02;5.32;;;;;;;;;;5059382;28;20209;-59
2022/11/26 10:36:22;;;;;;;8.60;5.13;;;;;;;;;;5059203;28;20205;-59
2022/11/26 10:38:48;;;;;;;16.70;6.13;;;;;;;;;;5059238;28;20209;-59
2022/11/26 10:41:15;;;;;;;10.50;5.85;;;;;;;;;;5059430;28;20319;-58
2022/11/26 10:43:43;;;;;;;13.90;5.78;;;;;;;;;;5059023;28;20213;-58
2022/11/26 10:46:29;;;;;;;8.07;4.93;;;;;;;;;;5058783;28;20248;-58
2022/11/26 10:49:14;;;;;;;10.25;5.30;;;;;;;;;;5059066;28;20209;-58
2022/11/26 10:51:41;;;;;;;8.25;6.03;;;;;;;;;;5059096;28;20239;-56
2022/11/26 10:54:21;;;;;;;9.63;4.65;;;;;;;;;;5058784;28;20205;-56
2022/11/26 10:56:51;;;;;;;8.07;5.00;;;;;;;;;;5060816;28;20201;-59
2022/11/26 10:59:22;;;;;;;9.30;5.20;;;;;;;;;;5064445;28;20197;-59
2022/11/26 11:01:48;;;;;;;14.95;5.47;;;;;;;;;;5064699;28;20204;-59
2022/11/26 11:04:22;;;;;;;11.88;5.68;;;;;;;;;;5064501;28;20197;-60
2022/11/26 11:06:48;;;;;;;12.52;5.88;;;;;;;;;;5064274;28;20221;-59
2022/11/26 11:09:25;;;;;;;11.43;5.57;;;;;;;;;;5064429;28;20394;-59
2022/11/26 11:12:10;;;;;;;11.20;4.72;;;;;;;;;;5064470;28;20197;-60
2022/11/26 11:14:39;;;;;;;9.90;5.45;;;;;;;;;;5064297;28;20200;-60
2022/11/26 11:17:05;;;;;;;12.20;5.30;;;;;;;;;;5064153;28;20208;-59
2022/11/26 11:19:33;;;;;;;11.88;5.20;;;;;;;;;;5064002;28;20251;-59
2022/11/26 11:21:59;;;;;;;10.93;5.60;;;;;;;;;;5064158;28;20197;-59
2022/11/26 11:24:27;;;;;;;6.43;4.82;;;;;;;;;;5064272;28;20504;-59
2022/11/26 11:26:55;;;;;;;11.65;5.85;;;;;;;;;;5064051;28;20228;-58
2022/11/26 11:29:26;;;;;;;14.45;6.28;;;;;;;;;;5063725;28;20224;-57
2022/11/26 11:31:54;;;;;;;10.55;4.82;;;;;;;;;;5063935;28;20552;-59
2022/11/26 11:34:21;;;;;;;8.68;4.18;;;;;;;;;;5064197;28;20196;-60
2022/11/26 11:36:58;;;;;;;12.30;4.82;;;;;;;;;;5063296;28;20193;-59
2022/11/26 11:39:28;;;;;;;10.30;4.80;;;;;;;;;;5063720;28;20203;-60
2022/11/26 11:41:54;;;;;;;7.65;4.60;;;;;;;;;;5063953;28;20205;-60
2022/11/26 11:44:30;;;;;;;10.60;4.88;;;;;;;;;;5063674;28;20197;-60
2022/11/26 11:47:04;;;;;;;10.82;5.65;;;;;;;;;;5063667;28;20275;-60
2022/11/26 11:49:48;;;;;;;10.23;5.32;;;;;;;;;;5063547;28;20201;-60
2022/11/26 11:52:18;;;;;;;6.80;3.80;;;;;;;;;;5063504;28;20201;-60
2022/11/26 11:54:48;;;;;;;9.80;4.05;;;;;;;;;;5063518;28;20598;-60
2022/11/26 11:57:19;;;;;;;7.95;3.97;;;;;;;;;;5063653;28;20194;-59
2022/11/26 12:00:09;;;;;;;9.15;3.95;;;;;;;;;;5063227;28;20423;-60
2022/11/26 12:02:50;;;;;;;13.18;5.25;;;;;;;;;;5063756;28;20227;-60
2022/11/26 12:05:27;;;;;;;11.07;4.82;;;;;;;;;;5061120;28;20196;-59
2022/11/26 12:07:57;;;;;;;13.15;5.40;;;;;;;;;;5062885;28;20458;-60
2022/11/26 12:10:25;;;;;;;11.52;4.80;;;;;;;;;;5062960;28;20196;-59
2022/11/26 12:12:52;;;;;;;9.57;5.18;;;;;;;;;;5062950;28;20227;-59
2022/11/26 12:15:23;;;;;;;9.80;5.20;;;;;;;;;;5062687;28;20205;-59
2022/11/26 12:17:52;;;;;;;10.05;5.13;;;;;;;;;;5062405;28;20197;-60
2022/11/26 12:20:22;;;;;;;7.18;4.25;;;;;;;;;;5062540;28;20535;-60
2022/11/26 12:22:51;;;;;;;6.97;4.30;;;;;;;;;;5062553;28;20453;-60
2022/11/26 12:25:22;;;;;;;31.63;7.53;;;;;;;;;;5062774;28;20217;-60
2022/11/26 12:27:51;;;;;;;11.13;3.90;;;;;;;;;;5062218;28;20225;-60
2022/11/26 12:30:20;;;;;;;9.70;3.83;;;;;;;;;;5062365;28;20201;-60
2022/11/26 12:32:49;;;;;;;8.05;3.72;;;;;;;;;;5062707;28;20205;-60
2022/11/26 12:35:19;;;;;;;11.40;3.83;;;;;;;;;;5062811;28;20384;-60
2022/11/26 12:37:49;;;;;;;8.43;3.55;;;;;;;;;;5062226;28;20311;-60
2022/11/26 12:40:24;;;;;;;8.43;3.17;;;;;;;;;;5062466;28;20189;-59
2022/11/26 12:42:54;;;;;;;7.75;3.08;;;;;;;;;;5062172;28;20204;-60
2022/11/26 12:45:32;;;;;;;6.80;3.17;;;;;;;;;;5062271;28;20231;-60
2022/11/26 12:48:01;;;;;;;7.85;3.03;;;;;;;;;;5061212;28;20193;-60
2022/11/26 12:50:31;;;;;;;7.97;2.70;;;;;;;;;;5062243;28;20282;-60
2022/11/26 12:53:00;;;;;;;4.43;2.83;;;;;;;;;;5062099;28;20197;-60
2022/11/26 12:55:31;;;;;;;7.82;3.45;;;;;;;;;;5062025;28;20209;-60
2022/11/26 12:58:01;;;;;;;8.63;3.10;;;;;;;;;;5062045;28;20287;-60
2022/11/26 13:00:28;;;;;;;8.82;3.30;;;;;;;;;;5062089;28;20419;-60
2022/11/26 13:02:54;;;;;;;9.63;3.30;;;;;;;;;;5061901;28;20340;-60
2022/11/26 13:05:22;;;;;;;10.27;3.50;;;;;;;;;;5061930;28;20376;-60
2022/11/26 13:08:00;;;;;;;11.35;3.28;;;;;;;;;;5061604;28;20223;-60
2022/11/26 13:10:33;;;;;;;7.95;3.05;;;;;;;;;;5061736;28;20272;-60
2022/11/26 13:13:06;;;;;;;8.07;3.15;;;;;;;;;;5061749;28;20196;-60
2022/11/26 13:15:34;;;;;;;8.77;3.00;;;;;;;;;;5061850;28;20196;-59
2022/11/26 13:18:01;;;;;;;6.07;2.90;;;;;;;;;;5061570;28;20193;-60
2022/11/26 13:20:32;;;;;;;6.78;2.95;;;;;;;;;;5061627;28;20212;-60
2022/11/26 13:23:05;;;;;;;9.70;3.25;;;;;;;;;;5061651;28;20207;-60
2022/11/26 13:25:39;;;;;;;11.43;3.05;;;;;;;;;;5061811;28;20197;-60
2022/11/26 13:28:09;;;;;;;6.65;2.88;;;;;;;;;;5061388;28;20216;-60
2022/11/26 13:30:40;;;;;;;10.23;3.10;;;;;;;;;;5061988;28;20197;-59
2022/11/26 13:33:28;;;;;;;14.55;3.88;;;;;;;;;;5061541;28;20197;-59
2022/11/26 13:36:04;;;;;;;8.65;3.13;;;;;;;;;;5058023;28;20200;-59
2022/11/26 13:38:32;;;;;;;6.60;2.75;;;;;;;;;;5061208;28;20396;-60
2022/11/26 13:41:07;;;;;;;5.88;3.10;;;;;;;;;;5061382;28;20201;-60
2022/11/26 13:43:52;;;;;;;6.47;2.78;;;;;;;;;;5061652;28;20267;-58
2022/11/26 13:46:20;;;;;;;9.05;3.10;;;;;;;;;;5061517;28;20224;-59
2022/11/26 13:48:51;;;;;;;9.20;3.38;;;;;;;;;;5061586;28;20211;-59
2022/11/26 13:51:22;;;;;;;7.82;3.22;;;;;;;;;;5061239;28;20197;-59
2022/11/26 13:53:50;;;;;;;10.48;3.92;;;;;;;;;;5061483;28;20205;-58
2022/11/26 13:56:20;;;;;;;5.22;2.45;;;;;;;;;;5061521;28;20212;-59
2022/11/26 13:58:48;;;;;;;10.68;3.03;;;;;;;;;;5062446;28;20537;-58
2022/11/26 14:01:28;;;;;;;6.38;3.15;;;;;;;;;;5065486;28;20527;-58
2022/11/26 14:03:55;;;;;;;5.63;3.00;;;;;;;;;;5065302;28;20223;-59
2022/11/26 14:06:21;;;;;;;7.10;2.90;;;;;;;;;;5065389;28;20516;-59
2022/11/26 14:08:49;;;;;;;11.15;3.38;;;;;;;;;;5065111;28;20497;-58
2022/11/26 14:11:30;;;;;;;6.90;2.70;;;;;;;;;;5065101;28;20197;-59
2022/11/26 14:14:11;;;;;;;5.45;2.70;;;;;;;;;;5064817;28;20292;-59
2022/11/26 14:17:09;;;;;;;7.47;2.83;;;;;;;;;;5064985;28;20209;-59
2022/11/26 14:19:50;;;;;;;4.88;3.22;;;;;;;;;;5064607;28;20205;-59
2022/11/26 14:22:27;;;;;;;9.43;3.58;;;;;;;;;;5064865;28;20204;-59
2022/11/26 14:24:55;;;;;;;9.25;2.80;;;;;;;;;;5065358;28;20197;-59
2022/11/26 14:27:23;;;;;;;11.05;3.53;;;;;;;;;;5064823;28;20548;-58
2022/11/26 14:29:53;;;;;;;4.93;2.75;;;;;;;;;;5065042;28;20189;-58
2022/11/26 14:32:22;;;;;;;7.38;2.78;;;;;;;;;;5064729;28;20211;-60
2022/11/26 14:34:50;;;;;;;8.38;3.10;;;;;;;;;;5064645;28;20197;-58
2022/11/26 14:37:17;;;;;;;18.15;5.85;;;;;;;;;;5064586;28;20193;-58
2022/11/26 14:39:45;;;;;;;11.57;5.55;;;;;;;;;;5064367;28;20537;-59
2022/11/26 14:42:14;;;;;;;23.52;8.65;;;;;;;;;;5064659;28;20370;-59
2022/11/26 14:44:41;;;;;;;10.73;5.43;;;;;;;;;;5064686;28;20197;-59